createdAt,value
2023-01-22T00:04:31.264Z,1019.41
2023-01-22T00:14:31.358Z,1019.40
2023-01-22T00:24:31.536Z,1019.32
2023-01-22T00:34:31.600Z,1019.36
2023-01-22T00:44:31.711Z,1019.34
2023-01-22T00:54:31.731Z,1019.31
2023-01-22T01:04:32.083Z,1019.35
2023-01-22T01:14:32.130Z,1019.35
2023-01-22T01:24:32.442Z,1019.28
2023-01-22T01:34:32.514Z,1019.32
2023-01-22T01:44:32.609Z,1019.33
2023-01-22T01:54:32.646Z,1019.29
2023-01-22T02:04:33.890Z,1019.18
2023-01-22T02:14:33.119Z,1019.22
2023-01-22T02:24:33.452Z,1019.15
2023-01-22T02:34:33.497Z,1019.06
2023-01-22T02:44:33.825Z,1019.02
2023-01-22T02:54:33.860Z,1018.97
2023-01-22T03:04:34.183Z,1018.91
2023-01-22T03:14:34.216Z,1018.88
2023-01-22T03:24:34.559Z,1018.90
2023-01-22T03:34:34.590Z,1018.95
2023-01-22T03:44:34.943Z,1018.96
2023-01-22T03:54:34.966Z,1018.98
2023-01-22T04:04:36.229Z,1018.95
2023-01-22T04:14:35.457Z,1019.02
2023-01-22T04:24:35.775Z,1019.16
2023-01-22T04:34:35.823Z,1019.25
2023-01-22T04:44:36.160Z,1019.25
2023-01-22T04:54:36.186Z,1019.27
2023-01-22T05:04:36.527Z,1019.31
2023-01-22T05:14:36.583Z,1019.46
2023-01-22T05:24:37.936Z,1019.55
2023-01-22T05:34:36.967Z,1019.49
2023-01-22T05:44:38.281Z,1019.58
2023-01-22T05:54:37.350Z,1019.66
2023-01-22T06:04:37.607Z,1019.85
2023-01-22T06:14:37.853Z,1019.92
2023-01-22T06:24:38.130Z,1019.96
2023-01-22T06:34:38.167Z,1020.06
2023-01-22T06:44:38.494Z,1020.09
2023-01-22T06:54:38.568Z,1020.19
2023-01-22T07:04:38.851Z,1020.20
2023-01-22T07:14:38.967Z,1020.30
2023-01-22T07:24:39.278Z,1020.23
2023-01-22T07:34:39.337Z,1020.29
2023-01-22T07:44:39.777Z,1020.33
2023-01-22T07:54:39.817Z,1020.40
2023-01-22T08:04:40.142Z,1020.41
2023-01-22T08:14:40.193Z,1020.48
2023-01-22T08:24:40.539Z,1020.53
2023-01-22T08:34:40.574Z,1020.58
2023-01-22T08:44:40.881Z,1020.60
2023-01-22T08:54:40.930Z,1020.59
2023-01-22T09:04:41.267Z,1020.64
2023-01-22T09:14:41.313Z,1020.78
2023-01-22T09:24:41.643Z,1020.90
2023-01-22T09:34:41.687Z,1020.96
2023-01-22T09:44:43.945Z,1021.00
2023-01-22T09:54:42.186Z,1021.03
2023-01-22T10:04:42.473Z,1020.88
2023-01-22T10:14:42.555Z,1020.84
2023-01-22T10:24:42.644Z,1020.87
2023-01-22T10:34:42.764Z,1020.86
2023-01-22T10:44:42.900Z,1020.84
2023-01-22T10:54:42.982Z,1020.83
2023-01-22T11:04:44.088Z,1020.84
2023-01-22T11:14:43.114Z,1020.81
2023-01-22T11:24:43.439Z,1020.88
2023-01-22T11:34:43.484Z,1020.87
2023-01-22T11:44:43.815Z,1020.86
2023-01-22T11:54:43.861Z,1020.73
2023-01-22T12:04:44.183Z,1020.76
2023-01-22T12:14:44.224Z,1020.80
2023-01-22T12:24:44.551Z,1020.78
2023-01-22T12:34:44.618Z,1020.73
2023-01-22T12:44:44.945Z,1020.77
2023-01-22T12:54:44.983Z,1020.83
2023-01-22T13:04:45.464Z,1020.73
2023-01-22T13:14:45.367Z,1020.73
2023-01-22T13:24:45.665Z,1020.82
2023-01-22T13:34:45.704Z,1020.79
2023-01-22T13:44:46.100Z,1020.85
2023-01-22T13:54:46.147Z,1020.96
2023-01-22T14:04:46.682Z,1020.91
2023-01-22T14:14:46.593Z,1020.99
2023-01-22T14:24:47.093Z,1021.04
2023-01-22T14:34:47.159Z,1021.23
2023-01-22T14:44:47.508Z,1021.28
2023-01-22T14:54:47.447Z,1021.25
2023-01-22T15:04:47.616Z,1021.36
2023-01-22T15:14:48.038Z,1021.47
2023-01-22T15:24:48.135Z,1021.49
2023-01-22T15:34:48.460Z,1021.49
2023-01-22T15:44:48.704Z,1021.61
2023-01-22T15:54:48.712Z,1021.67
2023-01-22T16:04:49.043Z,1021.76
2023-01-22T16:14:49.149Z,1021.83
2023-01-22T16:24:49.332Z,1021.92
2023-01-22T16:34:49.441Z,1021.97
2023-01-22T16:44:49.372Z,1022.03
2023-01-22T16:54:49.873Z,1022.11
2023-01-22T17:04:49.838Z,1022.19
2023-01-22T17:14:50.752Z,1022.23
2023-01-22T17:24:50.109Z,1022.25
2023-01-22T17:34:50.456Z,1022.37
2023-01-22T17:44:53.742Z,1022.52
2023-01-22T17:54:50.949Z,1022.51
2023-01-22T18:04:50.976Z,1022.53
2023-01-22T18:14:51.129Z,1022.66
2023-01-22T18:24:51.401Z,1022.77
2023-01-22T18:34:51.546Z,1022.77
2023-01-22T18:44:53.527Z,1022.89
2023-01-22T18:54:51.812Z,1022.87
2023-01-22T19:04:52.832Z,1022.92
2023-01-22T19:14:52.378Z,1022.93
2023-01-22T19:24:52.679Z,1023.07
2023-01-22T19:34:52.635Z,1023.01
2023-01-22T19:44:52.593Z,1023.10
2023-01-22T19:54:52.942Z,1023.22
2023-01-22T20:04:53.243Z,1023.24
2023-01-22T20:14:54.003Z,1023.39
2023-01-22T20:24:53.538Z,1023.39
2023-01-22T20:34:53.520Z,1023.43
2023-01-22T20:44:53.802Z,1023.39
2023-01-22T20:55:01.382Z,1023.51
2023-01-22T21:04:55.749Z,1023.55
2023-01-22T21:14:53.969Z,1023.54
2023-01-22T21:24:54.134Z,1023.44
2023-01-22T21:34:58.621Z,1023.37
2023-01-22T21:44:54.538Z,1023.38
2023-01-22T21:54:54.504Z,1023.43
2023-01-22T22:04:54.743Z,1023.53
2023-01-22T22:14:57.008Z,1023.48
2023-01-22T22:24:55.063Z,1023.45
2023-01-22T22:34:55.346Z,1023.58
2023-01-22T22:44:55.396Z,1023.67
2023-01-22T22:54:55.706Z,1023.58
2023-01-22T23:04:55.739Z,1023.45
2023-01-22T23:14:56.084Z,1023.50
2023-01-22T23:24:56.127Z,1023.39
2023-01-22T23:34:56.470Z,1023.28
2023-01-22T23:44:56.507Z,1023.26
2023-01-22T23:54:56.811Z,1023.43
